Paxson, AK

3:22 AM AKST on February 23, 2017 (GMT -0900)
Allen Army Air Field | | Change Station

Elev 1276 ft 63.99 °N, 145.72 °W | Updated 29 minutes ago

Overcast
Overcast
11 °F
Feels Like 11 °F
N
0
Wind Variable Wind from North

Today
High -- | Low -- °F
--% Chance of Precip.
Yesterday
High -- | Low -- °F
Precip. -- in
Pressure 30.52 in
Visibility 7.0 miles
Clouds Overcast 4500 ft
Dew Point 7 °F
Humidity 84%
Rainfall 0.00 in
Snow Depth Not available.
8:04 AM 5:46 PM
Waning Crescent, 11% visible
METAR PABI 231153Z AUTO 00000KT 7SM OVC045 M12/M14 A3039 RMK AO2 SNE24 SLP333 P0000 60000 T11171139 11111 21122 51021 TSNO
Pressure 30.52 in
Visibility 7.0 miles
Clouds Overcast 4500 ft
Dew Point 7 °F
Humidity 84%
Rainfall 0.00 in
Snow Depth Not available.
8:04 AM 5:46 PM
Waning Crescent, 11% visible
METAR PABI 231153Z AUTO 00000KT 7SM OVC045 M12/M14 A3039 RMK AO2 SNE24 SLP333 P0000 60000 T11171139 11111 21122 51021 TSNO

Get Your Daily Forecast Email!

Thanks for signing up!

Be on the lookout for a verification email in your inbox.

You'll start receiving the daily forecast at 8 AM.

×

10-Day Weather Forecast

Almanac

Astronomy

Feb. 23, 2017 Rise Set
Actual Time
Civil Twilight
Nautical Twilight
Astronomical Twilight
Moon
Length of Visible Light
Length of Day
Tomorrow will be .
, % of the Moon is Illuminated

Today's Extremes

State Highs State Lows

Community

WunderPhotos

Upload Photos

1,962,540 photos uploaded!

WunderBlog® & News

Nearby

Air Quality

  Air Quality AQ Index Pollutant
Not available.

Snow Depth

Station Depth Elevation

Earthquake Activity

City Distance Mag. Time & Date
Minimum magnitude displayed is 2.5.

Coastal Water Temperatures

Place Temperature

Stations

Nearby Weather Stations

Station Location Temp. Windchill Dew Point Humidity Wind Precip. Elev Updated Type
                   

Watches & Warnings

There are currently no watches in effect.